Time,TemperatureF,DewpointF,PressureIn,WindDirection,WindDirectionDegrees,WindSpeedMPH,WindSpeedGustMPH,Humidity,HourlyPrecipIn,Conditions,Clouds,dailyrainin,SoftwareType,DateUTC
2013-06-08 00:02:00,57.2,50.4,29.91,North,0,0.0,0.0,78,0.00,,OVC,0.00,WeatherDisplay:10.37,2013-06-08 05:02:00,
2013-06-08 00:07:00,57.2,50.4,29.91,North,0,0.0,0.0,78,0.00,,OVC,0.00,WeatherDisplay:10.37,2013-06-08 05:07:00,
2013-06-08 00:12:00,57.2,50.4,29.91,North,0,0.0,0.0,78,0.00,,OVC,0.00,WeatherDisplay:10.37,2013-06-08 05:12:00,
2013-06-08 00:17:00,57.0,50.2,29.91,North,0,0.0,0.0,78,0.00,,OVC,0.00,WeatherDisplay:10.37,2013-06-08 05:17:00,
2013-06-08 00:22:00,57.0,50.2,29.91,North,0,0.0,0.0,78,0.00,,OVC,0.00,WeatherDisplay:10.37,2013-06-08 05:22:00,
2013-06-08 00:27:00,57.0,50.2,29.91,North,0,1.8,1.8,78,0.00,,OVC,0.00,WeatherDisplay:10.37,2013-06-08 05:27:00,
2013-06-08 00:32:00,57.2,50.4,29.91,North,0,0.5,0.5,78,0.00,,OVC,0.00,WeatherDisplay:10.37,2013-06-08 05:32:00,
2013-06-08 00:37:00,57.2,50.4,29.91,North,0,0.0,0.0,78,0.00,,OVC,0.00,WeatherDisplay:10.37,2013-06-08 05:37:00,
2013-06-08 00:42:00,57.2,50.4,29.91,North,0,0.5,1.2,78,0.00,,OVC,0.00,WeatherDisplay:10.37,2013-06-08 05:42:00,
2013-06-08 00:47:00,57.2,50.4,29.92,North,0,0.0,1.2,78,0.00,,OVC,0.00,WeatherDisplay:10.37,2013-06-08 05:47:00,
2013-06-08 00:52:00,57.2,50.4,29.92,North,0,0.0,0.0,78,0.00,,OVC,0.00,WeatherDisplay:10.37,2013-06-08 05:52:00,
2013-06-08 00:57:00,57.2,50.4,29.91,North,0,0.0,0.0,78,0.00,,OVC,0.00,WeatherDisplay:10.37,2013-06-08 05:57:00,
2013-06-08 01:02:00,57.4,50.6,29.91,North,0,0.0,0.0,78,0.00,,OVC,0.00,WeatherDisplay:10.37,2013-06-08 06:02:00,
2013-06-08 01:07:00,57.6,50.8,29.91,North,0,0.0,0.0,78,0.00,,OVC,0.00,WeatherDisplay:10.37,2013-06-08 06:07:00,
2013-06-08 01:12:00,57.6,50.8,29.92,North,0,0.0,0.0,78,0.00,,OVC,0.00,WeatherDisplay:10.37,2013-06-08 06:12:00,
2013-06-08 01:17:00,57.6,50.8,29.92,North,0,0.0,0.0,78,0.00,,OVC,0.00,WeatherDisplay:10.37,2013-06-08 06:17:00,
2013-06-08 01:22:00,57.4,50.6,29.92,North,0,0.0,0.0,78,0.00,,OVC,0.00,WeatherDisplay:10.37,2013-06-08 06:22:00,
2013-06-08 01:27:00,57.2,50.4,29.91,North,0,0.0,0.0,78,0.00,,OVC,0.00,WeatherDisplay:10.37,2013-06-08 06:27:00,
2013-06-08 01:32:00,57.2,50.4,29.91,North,0,0.0,0.0,78,0.00,,OVC,0.00,WeatherDisplay:10.37,2013-06-08 06:32:00,
2013-06-08 01:37:00,57.0,50.2,29.92,West,270,2.2,2.3,78,0.00,,OVC,0.00,WeatherDisplay:10.37,2013-06-08 06:37:00,
2013-06-08 01:42:00,56.8,50.1,29.91,West,270,0.7,2.3,78,0.00,,OVC,0.00,WeatherDisplay:10.37,2013-06-08 06:42:00,
2013-06-08 01:47:00,56.8,50.1,29.91,West,270,0.5,1.2,78,0.00,,OVC,0.00,WeatherDisplay:10.37,2013-06-08 06:47:00,
2013-06-08 01:52:00,56.7,49.9,29.91,West,270,0.0,0.0,78,0.00,,OVC,0.00,WeatherDisplay:10.37,2013-06-08 06:52:00,
2013-06-08 01:57:00,56.7,49.9,29.91,West,270,0.0,0.0,78,0.00,,OVC,0.00,WeatherDisplay:10.37,2013-06-08 06:57:00,
2013-06-08 02:03:00,56.5,49.7,29.91,West,270,0.0,0.0,78,0.00,,OVC,0.00,WeatherDisplay:10.37,2013-06-08 07:03:00,
2013-06-08 02:08:00,56.5,49.7,29.91,West,270,0.2,0.2,78,0.00,,OVC,0.00,WeatherDisplay:10.37,2013-06-08 07:08:00,
2013-06-08 02:13:00,56.5,49.7,29.91,West,270,0.0,0.0,78,0.00,,OVC,0.00,WeatherDisplay:10.37,2013-06-08 07:13:00,
2013-06-08 02:18:00,56.5,49.7,29.91,West,270,0.0,0.0,78,0.00,,OVC,0.00,WeatherDisplay:10.37,2013-06-08 07:18:00,
2013-06-08 02:23:00,56.5,49.7,29.91,West,270,0.5,0.5,78,0.00,,OVC,0.00,WeatherDisplay:10.37,2013-06-08 07:23:00,
2013-06-08 02:28:00,56.5,49.7,29.91,West,270,0.0,0.0,78,0.00,,OVC,0.00,WeatherDisplay:10.37,2013-06-08 07:28:00,
2013-06-08 02:33:00,56.5,49.7,29.91,West,270,0.5,1.2,78,0.00,,OVC,0.00,WeatherDisplay:10.37,2013-06-08 07:33:00,
2013-06-08 02:38:00,56.5,49.7,29.91,NNW,338,1.8,2.3,78,0.00,,OVC,0.00,WeatherDisplay:10.37,2013-06-08 07:38:00,
2013-06-08 02:43:00,56.5,49.4,29.91,NNW,338,0.7,1.2,77,0.00,,OVC,0.00,WeatherDisplay:10.37,2013-06-08 07:43:00,
2013-06-08 02:48:00,56.3,49.2,29.91,NNW,338,0.0,0.0,77,0.00,,OVC,0.00,WeatherDisplay:10.37,2013-06-08 07:48:00,
2013-06-08 02:53:00,56.3,49.5,29.91,NNW,338,0.0,0.0,78,0.00,,OVC,0.00,WeatherDisplay:10.37,2013-06-08 07:53:00,
2013-06-08 02:58:00,56.3,49.5,29.91,NNW,338,0.0,0.0,78,0.00,,OVC,0.00,WeatherDisplay:10.37,2013-06-08 07:58:00,
2013-06-08 03:03:00,56.1,49.4,29.91,NNW,338,0.0,0.0,78,0.00,,OVC,0.00,WeatherDisplay:10.37,2013-06-08 08:03:00,
2013-06-08 03:08:00,56.1,49.0,29.91,NNW,338,0.0,0.0,77,0.00,,OVC,0.00,WeatherDisplay:10.37,2013-06-08 08:08:00,
2013-06-08 03:13:00,56.1,49.0,29.91,NNW,338,0.0,0.0,77,0.00,,OVC,0.00,WeatherDisplay:10.37,2013-06-08 08:13:00,
2013-06-08 03:18:00,56.1,49.0,29.90,NNW,338,0.0,0.0,77,0.00,,OVC,0.00,WeatherDisplay:10.37,2013-06-08 08:18:00,
2013-06-08 03:23:00,55.9,48.8,29.90,NNW,338,0.0,0.0,77,0.00,,OVC,0.00,WeatherDisplay:10.37,2013-06-08 08:23:00,
2013-06-08 03:28:00,55.9,48.8,29.90,NNE,22,1.6,1.6,77,0.00,,OVC,0.00,WeatherDisplay:10.37,2013-06-08 08:28:00,
2013-06-08 03:33:00,55.8,48.7,29.90,NNE,22,0.0,0.0,77,0.00,,OVC,0.00,WeatherDisplay:10.37,2013-06-08 08:33:00,
2013-06-08 03:38:00,55.8,48.3,29.90,NNE,22,0.5,0.5,76,0.00,,OVC,0.00,WeatherDisplay:10.37,2013-06-08 08:38:00,
2013-06-08 03:43:00,55.8,48.3,29.90,NNE,22,0.0,0.0,76,0.00,,OVC,0.00,WeatherDisplay:10.37,2013-06-08 08:43:00,
2013-06-08 03:48:00,55.6,48.1,29.90,NNE,22,0.0,0.0,76,0.00,,OVC,0.00,WeatherDisplay:10.37,2013-06-08 08:48:00,
2013-06-08 03:53:00,55.6,48.5,29.90,NNE,22,0.2,0.2,77,0.00,,OVC,0.00,WeatherDisplay:10.37,2013-06-08 08:53:00,
2013-06-08 03:58:00,55.4,48.3,29.90,NNE,22,0.0,0.0,77,0.00,,OVC,0.00,WeatherDisplay:10.37,2013-06-08 08:58:00,
2013-06-08 04:03:00,55.0,48.0,29.90,NNE,22,0.0,0.0,77,0.00,,OVC,0.00,WeatherDisplay:10.37,2013-06-08 09:03:00,
2013-06-08 04:08:00,55.2,48.1,29.90,NNE,22,0.0,0.0,77,0.00,,OVC,0.00,WeatherDisplay:10.37,2013-06-08 09:08:00,
2013-06-08 04:13:00,55.2,48.1,29.91,NNW,338,0.5,1.2,77,0.00,,OVC,0.00,WeatherDisplay:10.37,2013-06-08 09:13:00,
2013-06-08 04:18:00,55.0,48.0,29.91,NW,315,1.4,1.4,77,0.00,,OVC,0.00,WeatherDisplay:10.37,2013-06-08 09:18:00,
2013-06-08 04:23:00,54.9,47.8,29.91,WNW,292,0.9,1.2,77,0.00,,OVC,0.00,WeatherDisplay:10.37,2013-06-08 09:23:00,
2013-06-08 04:28:00,54.7,47.6,29.91,WNW,292,1.2,1.2,77,0.00,,OVC,0.00,WeatherDisplay:10.37,2013-06-08 09:28:00,
2013-06-08 04:33:00,54.7,47.6,29.91,WNW,292,0.0,0.0,77,0.00,,OVC,0.00,WeatherDisplay:10.37,2013-06-08 09:33:00,
2013-06-08 04:38:00,54.7,47.6,29.91,WNW,292,0.0,0.0,77,0.00,,OVC,0.00,WeatherDisplay:10.37,2013-06-08 09:38:00,
2013-06-08 04:43:00,54.9,47.8,29.90,WNW,292,0.0,0.0,77,0.00,,OVC,0.00,WeatherDisplay:10.37,2013-06-08 09:43:00,
2013-06-08 04:48:00,54.7,47.6,29.90,South,180,1.2,1.2,77,0.00,,OVC,0.00,WeatherDisplay:10.37,2013-06-08 09:48:00,
2013-06-08 04:53:00,54.1,46.7,29.90,SSE,158,1.2,1.2,76,0.00,,OVC,0.00,WeatherDisplay:10.37,2013-06-08 09:53:00,
2013-06-08 04:58:00,53.8,46.0,29.90,SSE,158,0.7,1.2,75,0.00,,OVC,0.00,WeatherDisplay:10.37,2013-06-08 09:58:00,
2013-06-08 05:03:00,53.6,45.9,29.90,SSE,158,0.9,1.2,75,0.00,,OVC,0.00,WeatherDisplay:10.37,2013-06-08 10:03:00,
2013-06-08 05:08:00,53.8,46.0,29.90,SE,135,1.4,1.4,75,0.00,,OVC,0.00,WeatherDisplay:10.37,2013-06-08 10:08:00,
2013-06-08 05:13:00,53.6,45.9,29.90,SE,135,0.5,1.2,75,0.00,,OVC,0.00,WeatherDisplay:10.37,2013-06-08 10:13:00,
2013-06-08 05:18:00,53.6,45.9,29.90,SE,135,1.2,1.2,75,0.00,,OVC,0.00,WeatherDisplay:10.37,2013-06-08 10:18:00,
2013-06-08 05:23:00,53.4,45.7,29.90,SE,135,0.7,1.2,75,0.00,,OVC,0.00,WeatherDisplay:10.37,2013-06-08 10:23:00,
2013-06-08 05:28:00,53.2,45.5,29.90,SE,135,1.2,1.2,75,0.00,,OVC,0.00,WeatherDisplay:10.37,2013-06-08 10:28:00,
2013-06-08 05:33:00,53.1,45.3,29.90,ESE,112,1.2,2.3,75,0.00,,OVC,0.00,WeatherDisplay:10.37,2013-06-08 10:33:00,
2013-06-08 05:38:00,52.9,45.2,29.90,ESE,112,1.4,1.4,75,0.00,,OVC,0.00,WeatherDisplay:10.37,2013-06-08 10:38:00,
2013-06-08 05:43:00,52.9,45.2,29.90,ESE,112,0.7,1.2,75,0.00,,OVC,0.00,WeatherDisplay:10.37,2013-06-08 10:43:00,
2013-06-08 05:48:00,52.7,45.0,29.90,ESE,112,2.2,2.3,75,0.00,,OVC,0.00,WeatherDisplay:10.37,2013-06-08 10:48:00,
2013-06-08 05:53:00,52.7,45.0,29.90,ESE,112,1.8,1.8,75,0.00,,OVC,0.00,WeatherDisplay:10.37,2013-06-08 10:53:00,
2013-06-08 05:58:00,52.7,45.0,29.90,ESE,112,1.8,2.3,75,0.00,,OVC,0.00,WeatherDisplay:10.37,2013-06-08 10:58:00,
2013-06-08 06:03:00,52.7,45.0,29.90,ESE,112,0.0,0.0,75,0.00,,OVC,0.00,WeatherDisplay:10.37,2013-06-08 11:03:00,
2013-06-08 06:08:00,52.9,44.8,29.91,ESE,112,0.5,0.5,74,0.00,,OVC,0.00,WeatherDisplay:10.37,2013-06-08 11:08:00,
2013-06-08 06:13:00,52.9,44.8,29.91,ESE,112,0.9,1.2,74,0.00,,OVC,0.00,WeatherDisplay:10.37,2013-06-08 11:13:00,
2013-06-08 06:18:00,53.1,45.0,29.92,ESE,112,1.2,1.2,74,0.00,,OVC,0.00,WeatherDisplay:10.37,2013-06-08 11:18:00,
2013-06-08 06:23:00,53.4,45.7,29.92,ESE,112,2.0,2.3,75,0.00,,OVC,0.00,WeatherDisplay:10.37,2013-06-08 11:23:00,
2013-06-08 06:28:00,53.8,45.7,29.92,SE,135,2.6,2.6,74,0.00,,OVC,0.00,WeatherDisplay:10.37,2013-06-08 11:28:00,
2013-06-08 06:33:00,54.1,46.4,29.92,SE,135,2.0,2.3,75,0.00,,OVC,0.00,WeatherDisplay:10.37,2013-06-08 11:33:00,
2013-06-08 06:38:00,54.3,46.6,29.92,SE,135,1.8,1.8,75,0.00,,OVC,0.00,WeatherDisplay:10.37,2013-06-08 11:38:00,
2013-06-08 06:43:00,54.3,46.6,29.92,ESE,112,1.6,2.3,75,0.00,,OVC,0.00,WeatherDisplay:10.37,2013-06-08 11:43:00,
2013-06-08 06:48:00,54.1,46.4,29.92,ESE,112,2.2,2.3,75,0.00,,OVC,0.00,WeatherDisplay:10.37,2013-06-08 11:48:00,
2013-06-08 06:53:00,54.1,46.4,29.92,SE,135,3.1,3.5,75,0.00,,OVC,0.00,WeatherDisplay:10.37,2013-06-08 11:53:00,
2013-06-08 06:58:00,54.3,46.6,29.92,SE,135,3.3,3.5,75,0.00,,OVC,0.00,WeatherDisplay:10.37,2013-06-08 11:58:00,
2013-06-08 07:03:00,54.3,46.6,29.92,SE,135,3.3,3.5,75,0.00,,OVC,0.00,WeatherDisplay:10.37,2013-06-08 12:03:00,
2013-06-08 07:08:00,54.3,46.6,29.92,ESE,112,2.9,2.9,75,0.00,,OVC,0.00,WeatherDisplay:10.37,2013-06-08 12:08:00,
2013-06-08 07:13:00,54.5,46.7,29.92,ESE,112,2.6,2.6,75,0.00,,OVC,0.00,WeatherDisplay:10.37,2013-06-08 12:13:00,
2013-06-08 07:18:00,54.7,46.6,29.92,ESE,112,2.9,3.5,74,0.00,,OVC,0.00,WeatherDisplay:10.37,2013-06-08 12:18:00,
2013-06-08 07:23:00,55.0,46.2,29.91,SE,135,1.8,3.5,72,0.00,,OVC,0.00,WeatherDisplay:10.37,2013-06-08 12:23:00,
2013-06-08 07:29:00,55.6,46.7,29.91,ESE,112,1.2,1.2,72,0.00,,OVC,0.00,WeatherDisplay:10.37,2013-06-08 12:29:00,
2013-06-08 07:34:00,55.9,47.4,29.91,East,90,0.9,2.3,73,0.00,,OVC,0.00,WeatherDisplay:10.37,2013-06-08 12:34:00,
2013-06-08 07:39:00,56.5,47.9,29.91,ESE,112,1.2,2.3,73,0.00,,OVC,0.00,WeatherDisplay:10.37,2013-06-08 12:39:00,
2013-06-08 07:44:00,56.8,47.2,29.91,ESE,112,1.8,2.3,70,0.00,,OVC,0.00,WeatherDisplay:10.37,2013-06-08 12:44:00,
2013-06-08 07:49:00,57.4,48.4,29.91,SE,135,3.1,3.1,72,0.00,,OVC,0.00,WeatherDisplay:10.37,2013-06-08 12:49:00,
2013-06-08 07:54:00,57.7,49.1,29.91,ESE,112,2.6,2.6,73,0.00,,OVC,0.00,WeatherDisplay:10.37,2013-06-08 12:54:00,
2013-06-08 07:59:00,58.1,49.5,29.91,SE,135,3.3,3.5,73,0.00,,OVC,0.00,WeatherDisplay:10.37,2013-06-08 12:59:00,
2013-06-08 08:04:00,58.3,49.7,29.91,ESE,112,2.4,2.4,73,0.00,,OVC,0.00,WeatherDisplay:10.37,2013-06-08 13:04:00,
2013-06-08 08:09:00,58.6,50.4,29.92,SE,135,3.8,3.8,74,0.00,,OVC,0.00,WeatherDisplay:10.37,2013-06-08 13:09:00,
2013-06-08 08:14:00,58.6,50.4,29.92,SE,135,3.6,3.6,74,0.00,,OVC,0.00,WeatherDisplay:10.37,2013-06-08 13:14:00,
2013-06-08 08:19:00,58.6,50.4,29.92,SE,135,2.0,3.5,74,0.00,,OVC,0.00,WeatherDisplay:10.37,2013-06-08 13:19:00,
2013-06-08 08:24:00,59.0,50.7,29.91,ESE,112,2.0,2.3,74,0.00,,OVC,0.00,WeatherDisplay:10.37,2013-06-08 13:24:00,
2013-06-08 08:29:00,59.2,50.9,29.91,ESE,112,2.2,2.3,74,0.00,,OVC,0.00,WeatherDisplay:10.37,2013-06-08 13:29:00,
2013-06-08 08:34:00,59.4,51.4,29.91,East,90,1.8,4.6,75,0.00,,OVC,0.00,WeatherDisplay:10.37,2013-06-08 13:34:00,
2013-06-08 08:39:00,59.5,51.2,29.91,SSE,158,4.5,4.6,74,0.00,,OVC,0.00,WeatherDisplay:10.37,2013-06-08 13:39:00,
2013-06-08 08:44:00,59.7,51.8,29.92,SE,135,1.8,4.6,75,0.00,,OVC,0.00,WeatherDisplay:10.37,2013-06-08 13:44:00,
2013-06-08 08:49:00,60.1,52.1,29.92,South,180,2.6,2.6,75,0.00,,OVC,0.00,WeatherDisplay:10.37,2013-06-08 13:49:00,
2013-06-08 08:54:00,60.1,52.1,29.93,SSE,158,5.4,5.8,75,0.00,,OVC,0.00,WeatherDisplay:10.37,2013-06-08 13:54:00,
2013-06-08 08:59:00,60.4,52.8,29.92,SSE,158,4.0,4.6,76,0.00,,OVC,0.00,WeatherDisplay:10.37,2013-06-08 13:59:00,
2013-06-08 09:04:00,60.8,53.2,29.93,SSE,158,4.7,5.8,76,0.00,,OVC,0.00,WeatherDisplay:10.37,2013-06-08 14:04:00,
2013-06-08 09:09:00,61.2,53.5,29.93,SSE,158,6.2,6.2,76,0.00,,OVC,0.00,WeatherDisplay:10.37,2013-06-08 14:09:00,
2013-06-08 09:14:00,61.3,54.1,29.93,South,180,4.5,4.6,77,0.00,,OVC,0.00,WeatherDisplay:10.37,2013-06-08 14:14:00,
2013-06-08 09:19:00,61.5,53.9,29.93,SSE,158,4.9,4.9,76,0.00,,OVC,0.00,WeatherDisplay:10.37,2013-06-08 14:19:00,
2013-06-08 09:24:00,61.9,54.6,29.92,SSE,158,4.7,5.8,77,0.00,,OVC,0.00,WeatherDisplay:10.37,2013-06-08 14:24:00,
2013-06-08 09:29:00,62.4,55.1,29.92,South,180,6.0,6.0,77,0.00,,OVC,0.00,WeatherDisplay:10.37,2013-06-08 14:29:00,
2013-06-08 09:34:00,63.0,55.6,29.93,SSE,158,5.4,6.9,77,0.00,,OVC,0.00,WeatherDisplay:10.37,2013-06-08 14:34:00,
2013-06-08 09:39:00,63.3,56.0,29.93,SSE,158,4.7,5.8,77,0.00,,OVC,0.00,WeatherDisplay:10.37,2013-06-08 14:39:00,
2013-06-08 09:44:00,63.3,55.6,29.93,SE,135,6.2,6.9,76,0.00,,OVC,0.00,WeatherDisplay:10.37,2013-06-08 14:44:00,
2013-06-08 09:49:00,63.9,56.5,29.93,South,180,2.6,6.9,77,0.00,,OVC,0.00,WeatherDisplay:10.37,2013-06-08 14:49:00,
2013-06-08 09:54:00,64.0,56.3,29.93,South,180,1.8,2.3,76,0.00,,OVC,0.00,WeatherDisplay:10.37,2013-06-08 14:54:00,
2013-06-08 09:59:00,63.9,56.1,29.93,South,180,4.0,6.9,76,0.00,,OVC,0.00,WeatherDisplay:10.37,2013-06-08 14:59:00,
2013-06-08 10:04:00,63.9,56.1,29.93,SW,225,3.1,3.1,76,0.00,,OVC,0.00,WeatherDisplay:10.37,2013-06-08 15:04:00,
2013-06-08 10:09:00,64.2,56.5,29.93,SSW,202,3.3,3.3,76,0.00,,OVC,0.00,WeatherDisplay:10.37,2013-06-08 15:09:00,
2013-06-08 10:14:00,64.4,56.3,29.93,SSW,202,6.0,6.0,75,0.00,,OVC,0.00,WeatherDisplay:10.37,2013-06-08 15:14:00,
2013-06-08 10:19:00,64.4,56.7,29.93,SSW,202,3.6,3.6,76,0.00,,OVC,0.00,WeatherDisplay:10.37,2013-06-08 15:19:00,
2013-06-08 10:24:00,64.4,56.3,29.93,ESE,112,5.4,5.8,75,0.00,,OVC,0.00,WeatherDisplay:10.37,2013-06-08 15:24:00,
2013-06-08 10:29:00,64.6,56.8,29.93,South,180,1.8,3.5,76,0.00,,OVC,0.00,WeatherDisplay:10.37,2013-06-08 15:29:00,
2013-06-08 10:34:00,64.6,56.8,29.93,SE,135,4.5,4.6,76,0.00,,OVC,0.00,WeatherDisplay:10.37,2013-06-08 15:34:00,
2013-06-08 10:39:00,64.8,56.3,29.93,SSW,202,3.1,3.5,74,0.00,,OVC,0.00,WeatherDisplay:10.37,2013-06-08 15:39:00,
2013-06-08 10:44:00,64.8,57.0,29.93,SE,135,2.0,3.5,76,0.00,,OVC,0.00,WeatherDisplay:10.37,2013-06-08 15:44:00,
2013-06-08 10:49:00,64.9,56.8,29.93,SSW,202,4.9,4.9,75,0.00,,OVC,0.00,WeatherDisplay:10.37,2013-06-08 15:49:00,
2013-06-08 10:54:00,64.9,56.5,29.93,SSE,158,3.3,5.8,74,0.00,,OVC,0.00,WeatherDisplay:10.37,2013-06-08 15:54:00,
2013-06-08 10:59:00,65.3,56.8,29.93,SSE,158,3.1,4.6,74,0.00,,OVC,0.00,WeatherDisplay:10.37,2013-06-08 15:59:00,
2013-06-08 11:04:00,65.5,56.6,29.93,SE,135,4.0,4.6,73,0.00,,OVC,0.00,WeatherDisplay:10.37,2013-06-08 16:04:00,
2013-06-08 11:09:00,65.7,57.1,29.93,SE,135,4.5,4.6,74,0.00,,OVC,0.00,WeatherDisplay:10.37,2013-06-08 16:09:00,
2013-06-08 11:14:00,66.0,57.5,29.93,SSW,202,4.0,4.6,74,0.00,,OVC,0.00,WeatherDisplay:10.37,2013-06-08 16:14:00,
2013-06-08 11:19:00,66.4,57.1,29.93,SE,135,7.6,7.6,72,0.00,,OVC,0.00,WeatherDisplay:10.37,2013-06-08 16:19:00,
2013-06-08 11:24:00,66.6,56.9,29.93,SSE,158,2.2,8.1,71,0.00,,OVC,0.00,WeatherDisplay:10.37,2013-06-08 16:24:00,
2013-06-08 11:29:00,66.7,56.6,29.92,South,180,3.3,4.6,70,0.00,,OVC,0.00,WeatherDisplay:10.37,2013-06-08 16:29:00,
2013-06-08 11:34:00,66.7,56.6,29.92,South,180,4.3,6.9,70,0.00,,OVC,0.00,WeatherDisplay:10.37,2013-06-08 16:34:00,
2013-06-08 11:39:00,66.9,56.8,29.92,SE,135,6.4,8.1,70,0.00,,OVC,0.00,WeatherDisplay:10.37,2013-06-08 16:39:00,
2013-06-08 11:44:00,67.1,55.4,29.92,SE,135,6.9,6.9,66,0.00,,OVC,0.00,WeatherDisplay:10.37,2013-06-08 16:44:00,
2013-06-08 11:49:00,67.1,56.6,29.91,ESE,112,6.2,6.2,69,0.00,,OVC,0.00,WeatherDisplay:10.37,2013-06-08 16:49:00,
2013-06-08 11:54:00,67.3,55.5,29.91,ESE,112,9.9,10.4,66,0.00,,OVC,0.00,WeatherDisplay:10.37,2013-06-08 16:54:00,
2013-06-08 11:59:00,67.6,55.5,29.91,South,180,5.9,9.2,65,0.00,,OVC,0.00,WeatherDisplay:10.37,2013-06-08 16:59:00,
2013-06-08 12:04:00,67.8,56.0,29.91,South,180,6.4,10.4,66,0.00,,OVC,0.00,WeatherDisplay:10.37,2013-06-08 17:04:00,
2013-06-08 12:09:00,68.0,55.4,29.91,SSE,158,6.9,8.1,64,0.00,,OVC,0.00,WeatherDisplay:10.37,2013-06-08 17:09:00,
2013-06-08 12:14:00,68.0,55.4,29.91,SE,135,8.3,8.3,64,0.00,,OVC,0.00,WeatherDisplay:10.37,2013-06-08 17:14:00,
2013-06-08 12:19:00,68.7,56.9,29.91,SSE,158,11.8,11.8,66,0.00,,OVC,0.00,WeatherDisplay:10.37,2013-06-08 17:19:00,
2013-06-08 12:24:00,69.1,53.7,29.91,South,180,7.6,9.2,58,0.00,,OVC,0.00,WeatherDisplay:10.37,2013-06-08 17:24:00,
2013-06-08 12:29:00,69.1,56.8,29.91,SE,135,12.1,12.1,65,0.00,,OVC,0.00,WeatherDisplay:10.37,2013-06-08 17:29:00,
2013-06-08 12:34:00,69.1,56.0,29.91,SSE,158,11.8,11.8,63,0.00,,OVC,0.00,WeatherDisplay:10.37,2013-06-08 17:34:00,
2013-06-08 12:39:00,69.1,55.5,29.91,South,180,5.4,10.4,62,0.00,,OVC,0.00,WeatherDisplay:10.37,2013-06-08 17:39:00,
2013-06-08 12:44:00,68.9,54.9,29.91,SSE,158,7.1,7.1,61,0.00,,OVC,0.00,WeatherDisplay:10.37,2013-06-08 17:44:00,
2013-06-08 12:49:00,68.7,54.7,29.91,South,180,4.0,6.9,61,0.00,,OVC,0.00,WeatherDisplay:10.37,2013-06-08 17:49:00,
2013-06-08 12:54:00,68.4,55.3,29.90,South,180,4.7,4.7,63,0.00,,OVC,0.00,WeatherDisplay:10.37,2013-06-08 17:54:00,
2013-06-08 12:59:00,68.4,53.5,29.91,South,180,6.7,6.9,59,0.00,,OVC,0.00,WeatherDisplay:10.37,2013-06-08 17:59:00,
2013-06-08 13:04:00,68.5,55.9,29.91,South,180,6.7,6.9,64,0.00,,OVC,0.00,WeatherDisplay:10.37,2013-06-08 18:04:00,
2013-06-08 13:09:00,68.7,54.7,29.91,South,180,7.4,11.5,61,0.00,,OVC,0.00,WeatherDisplay:10.37,2013-06-08 18:09:00,
2013-06-08 13:14:00,68.9,55.8,29.91,SE,135,5.9,6.9,63,0.00,,OVC,0.00,WeatherDisplay:10.37,2013-06-08 18:14:00,
2013-06-08 13:19:00,68.7,54.7,29.91,South,180,6.4,6.9,61,0.00,,OVC,0.00,WeatherDisplay:10.37,2013-06-08 18:19:00,
2013-06-08 13:24:00,68.4,55.3,29.91,SSE,158,8.1,8.1,63,0.00,,OVC,0.00,WeatherDisplay:10.37,2013-06-08 18:24:00,
2013-06-08 13:30:00,68.4,54.8,29.91,South,180,4.3,5.8,62,0.00,,OVC,0.00,WeatherDisplay:10.37,2013-06-08 18:30:00,
2013-06-08 13:35:00,68.4,53.9,29.91,South,180,10.5,10.5,60,0.00,,OVC,0.00,WeatherDisplay:10.37,2013-06-08 18:35:00,
2013-06-08 13:40:00,68.4,53.5,29.91,SSE,158,4.9,8.1,59,0.00,,OVC,0.00,WeatherDisplay:10.37,2013-06-08 18:40:00,
2013-06-08 13:45:00,68.5,54.1,29.90,SSE,158,10.5,11.5,60,0.00,,OVC,0.00,WeatherDisplay:10.37,2013-06-08 18:45:00,
2013-06-08 13:50:00,68.5,54.1,29.90,South,180,5.6,6.9,60,0.00,,OVC,0.00,WeatherDisplay:10.37,2013-06-08 18:50:00,
2013-06-08 13:55:00,68.4,53.5,29.90,SSE,158,10.5,10.5,59,0.00,,OVC,0.00,WeatherDisplay:10.37,2013-06-08 18:55:00,
2013-06-08 14:00:00,68.4,54.4,29.90,SSW,202,8.5,9.2,61,0.00,,OVC,0.00,WeatherDisplay:10.37,2013-06-08 19:00:00,
2013-06-08 14:05:00,68.4,54.8,29.90,SSE,158,8.1,9.2,62,0.00,,OVC,0.00,WeatherDisplay:10.37,2013-06-08 19:05:00,
2013-06-08 14:10:00,68.4,55.3,29.90,SSE,158,8.7,9.2,63,0.00,,OVC,0.00,WeatherDisplay:10.37,2013-06-08 19:10:00,
2013-06-08 14:15:00,68.4,54.8,29.90,SSE,158,10.5,10.5,62,0.00,,OVC,0.00,WeatherDisplay:10.37,2013-06-08 19:15:00,
2013-06-08 14:20:00,68.4,55.7,29.90,SSE,158,7.1,9.2,64,0.00,,OVC,0.00,WeatherDisplay:10.37,2013-06-08 19:20:00,
2013-06-08 14:25:00,68.4,55.7,29.90,SSE,158,11.6,11.6,64,0.00,,OVC,0.00,WeatherDisplay:10.37,2013-06-08 19:25:00,
2013-06-08 14:30:00,68.4,54.4,29.91,South,180,4.7,9.2,61,0.00,,OVC,0.00,WeatherDisplay:10.37,2013-06-08 19:30:00,
2013-06-08 14:35:00,68.4,55.7,29.91,SE,135,6.4,6.9,64,0.00,,OVC,0.00,WeatherDisplay:10.37,2013-06-08 19:35:00,
2013-06-08 14:40:00,68.4,55.7,29.91,South,180,4.3,4.6,64,0.00,,OVC,0.00,WeatherDisplay:10.37,2013-06-08 19:40:00,
2013-06-08 14:45:00,68.2,55.5,29.91,SSW,202,3.8,3.8,64,0.00,,OVC,0.00,WeatherDisplay:10.37,2013-06-08 19:45:00,
2013-06-08 14:50:00,68.0,54.5,29.91,SSE,158,4.9,6.9,62,0.00,,OVC,0.00,WeatherDisplay:10.37,2013-06-08 19:50:00,
2013-06-08 14:55:00,68.0,54.5,29.91,SSE,158,8.7,9.2,62,0.00,,OVC,0.00,WeatherDisplay:10.37,2013-06-08 19:55:00,
2013-06-08 15:00:00,67.8,54.8,29.91,South,180,5.2,5.2,63,0.00,,OVC,0.00,WeatherDisplay:10.37,2013-06-08 20:00:00,
2013-06-08 15:05:00,67.6,54.6,29.91,SSE,158,7.6,7.6,63,0.00,,OVC,0.00,WeatherDisplay:10.37,2013-06-08 20:05:00,
2013-06-08 15:10:00,67.6,55.0,29.91,SSE,158,7.8,8.1,64,0.00,,OVC,0.00,WeatherDisplay:10.37,2013-06-08 20:10:00,
2013-06-08 15:15:00,67.6,55.5,29.91,SE,135,9.0,9.0,65,0.00,,OVC,0.00,WeatherDisplay:10.37,2013-06-08 20:15:00,
2013-06-08 15:20:00,67.6,55.0,29.91,SE,135,7.8,8.1,64,0.00,,OVC,0.00,WeatherDisplay:10.37,2013-06-08 20:20:00,
2013-06-08 15:25:00,68.0,55.4,29.91,SE,135,6.9,6.9,64,0.00,,OVC,0.00,WeatherDisplay:10.37,2013-06-08 20:25:00,
2013-06-08 15:30:00,68.2,55.1,29.91,SE,135,6.9,8.1,63,0.00,,OVC,0.00,WeatherDisplay:10.37,2013-06-08 20:30:00,
2013-06-08 15:35:00,68.4,55.3,29.91,SE,135,7.8,8.1,63,0.00,,OVC,0.00,WeatherDisplay:10.37,2013-06-08 20:35:00,
2013-06-08 15:40:00,68.7,55.6,29.91,SSE,158,4.0,4.6,63,0.00,,OVC,0.00,WeatherDisplay:10.37,2013-06-08 20:40:00,
2013-06-08 15:45:00,69.1,55.5,29.91,ESE,112,7.4,10.4,62,0.00,,OVC,0.00,WeatherDisplay:10.37,2013-06-08 20:45:00,
2013-06-08 15:50:00,69.3,55.2,29.91,SSE,158,10.5,10.5,61,0.00,,OVC,0.00,WeatherDisplay:10.37,2013-06-08 20:50:00,
2013-06-08 15:55:00,69.4,55.4,29.91,SSE,158,9.7,9.7,61,0.00,,OVC,0.00,WeatherDisplay:10.37,2013-06-08 20:55:00,
2013-06-08 16:00:00,69.4,55.4,29.91,SE,135,7.1,10.4,61,0.00,,OVC,0.00,WeatherDisplay:10.37,2013-06-08 21:00:00,
2013-06-08 16:05:00,69.3,55.7,29.91,SE,135,6.4,10.4,62,0.00,,OVC,0.00,WeatherDisplay:10.37,2013-06-08 21:05:00,
2013-06-08 16:10:00,69.4,55.4,29.91,SSE,158,6.4,8.1,61,0.00,,OVC,0.00,WeatherDisplay:10.37,2013-06-08 21:10:00,
2013-06-08 16:15:00,69.6,56.0,29.91,SSE,158,8.7,8.7,62,0.00,,OVC,0.00,WeatherDisplay:10.37,2013-06-08 21:15:00,
2013-06-08 16:20:00,69.4,55.4,29.91,SE,135,4.0,5.8,61,0.00,,OVC,0.00,WeatherDisplay:10.37,2013-06-08 21:20:00,
2013-06-08 16:25:00,69.4,54.9,29.91,SSE,158,4.0,5.8,60,0.00,,OVC,0.00,WeatherDisplay:10.37,2013-06-08 21:25:00,
2013-06-08 16:30:00,69.4,55.4,29.91,SSE,158,11.8,11.8,61,0.00,,OVC,0.00,WeatherDisplay:10.37,2013-06-08 21:30:00,
2013-06-08 16:35:00,69.4,54.9,29.91,SSE,158,8.1,8.1,60,0.00,,OVC,0.00,WeatherDisplay:10.37,2013-06-08 21:35:00,
2013-06-08 16:40:00,69.4,54.5,29.91,SSE,158,11.6,11.6,59,0.00,,OVC,0.00,WeatherDisplay:10.37,2013-06-08 21:40:00,
2013-06-08 16:45:00,69.6,55.1,29.91,SSE,158,12.3,12.7,60,0.00,,OVC,0.00,WeatherDisplay:10.37,2013-06-08 21:45:00,
2013-06-08 16:50:00,69.8,54.4,29.91,South,180,8.5,12.7,58,0.00,,OVC,0.00,WeatherDisplay:10.37,2013-06-08 21:50:00,
2013-06-08 16:55:00,69.4,55.4,29.91,SSW,202,7.4,7.4,61,0.00,,OVC,0.00,WeatherDisplay:10.37,2013-06-08 21:55:00,
2013-06-08 17:00:00,69.4,54.9,29.91,SSE,158,8.5,11.5,60,0.00,,OVC,0.00,WeatherDisplay:10.37,2013-06-08 22:00:00,
2013-06-08 17:05:00,69.4,55.4,29.91,SSE,158,9.0,10.4,61,0.00,,OVC,0.00,WeatherDisplay:10.37,2013-06-08 22:05:00,
2013-06-08 17:10:00,69.4,54.9,29.91,SSE,158,6.9,6.9,60,0.00,,OVC,0.00,WeatherDisplay:10.37,2013-06-08 22:10:00,
2013-06-08 17:15:00,69.3,55.2,29.91,SE,135,6.0,9.2,61,0.00,,OVC,0.00,WeatherDisplay:10.37,2013-06-08 22:15:00,
2013-06-08 17:20:00,69.3,55.2,29.91,SSE,158,9.2,9.2,61,0.00,,OVC,0.00,WeatherDisplay:10.37,2013-06-08 22:20:00,
2013-06-08 17:25:00,69.4,54.9,29.91,SSE,158,8.3,10.4,60,0.00,,OVC,0.00,WeatherDisplay:10.37,2013-06-08 22:25:00,
2013-06-08 17:30:00,69.3,54.8,29.91,SSE,158,9.4,11.5,60,0.00,,OVC,0.00,WeatherDisplay:10.37,2013-06-08 22:30:00,
2013-06-08 17:35:00,69.1,54.1,29.91,South,180,6.2,10.4,59,0.00,,OVC,0.00,WeatherDisplay:10.37,2013-06-08 22:35:00,
2013-06-08 17:41:00,69.1,54.6,29.91,SE,135,8.5,11.5,60,0.00,,OVC,0.00,WeatherDisplay:10.37,2013-06-08 22:41:00,
2013-06-08 17:46:00,69.3,54.8,29.90,SE,135,5.9,9.2,60,0.00,,OVC,0.00,WeatherDisplay:10.37,2013-06-08 22:46:00,
2013-06-08 17:51:00,69.3,54.8,29.90,ESE,112,8.7,10.4,60,0.00,,OVC,0.00,WeatherDisplay:10.37,2013-06-08 22:51:00,
2013-06-08 17:56:00,69.3,54.3,29.90,ESE,112,9.4,9.4,59,0.00,,OVC,0.00,WeatherDisplay:10.37,2013-06-08 22:56:00,
2013-06-08 18:01:00,69.3,55.2,29.89,SE,135,6.2,10.4,61,0.00,,OVC,0.00,WeatherDisplay:10.37,2013-06-08 23:01:00,
2013-06-08 18:06:00,69.3,54.8,29.89,SE,135,10.0,10.0,60,0.00,,OVC,0.00,WeatherDisplay:10.37,2013-06-08 23:06:00,
2013-06-08 18:11:00,69.1,54.1,29.89,ESE,112,9.9,12.7,59,0.00,,OVC,0.00,WeatherDisplay:10.37,2013-06-08 23:11:00,
2013-06-08 18:16:00,69.1,54.6,29.89,ESE,112,6.0,8.1,60,0.00,,OVC,0.00,WeatherDisplay:10.37,2013-06-08 23:16:00,
2013-06-08 18:21:00,69.1,54.6,29.89,ESE,112,9.0,9.0,60,0.00,,OVC,0.00,WeatherDisplay:10.37,2013-06-08 23:21:00,
2013-06-08 18:26:00,68.9,54.4,29.89,ESE,112,8.5,9.2,60,0.00,,OVC,0.00,WeatherDisplay:10.37,2013-06-08 23:26:00,
2013-06-08 18:31:00,68.9,54.9,29.88,ESE,112,10.2,10.2,61,0.00,,OVC,0.00,WeatherDisplay:10.37,2013-06-08 23:31:00,
2013-06-08 18:36:00,68.7,54.7,29.89,ESE,112,9.9,9.9,61,0.00,,OVC,0.00,WeatherDisplay:10.37,2013-06-08 23:36:00,
2013-06-08 18:41:00,68.7,54.7,29.88,ESE,112,7.1,10.4,61,0.00,,OVC,0.00,WeatherDisplay:10.37,2013-06-08 23:41:00,
2013-06-08 18:46:00,68.9,55.8,29.88,ESE,112,6.2,8.1,63,0.00,,OVC,0.00,WeatherDisplay:10.37,2013-06-08 23:46:00,
2013-06-08 18:51:00,68.7,55.6,29.88,ESE,112,8.5,9.2,63,0.00,,OVC,0.00,WeatherDisplay:10.37,2013-06-08 23:51:00,
2013-06-08 18:56:00,68.7,55.6,29.88,ESE,112,7.4,9.2,63,0.00,,OVC,0.00,WeatherDisplay:10.37,2013-06-08 23:56:00,
2013-06-08 19:01:00,68.7,55.6,29.88,ESE,112,8.3,8.3,63,0.00,,OVC,0.00,WeatherDisplay:10.37,2013-06-09 00:01:00,
2013-06-08 19:06:00,68.5,55.9,29.88,East,90,6.0,6.9,64,0.00,,OVC,0.00,WeatherDisplay:10.37,2013-06-09 00:06:00,
2013-06-08 19:11:00,68.4,55.7,29.88,East,90,4.9,5.8,64,0.00,,OVC,0.00,WeatherDisplay:10.37,2013-06-09 00:11:00,
2013-06-08 19:16:00,68.2,56.0,29.88,ESE,112,5.2,5.8,65,0.00,,OVC,0.00,WeatherDisplay:10.37,2013-06-09 00:16:00,
2013-06-08 19:21:00,68.0,56.2,29.88,ESE,112,4.0,4.6,66,0.00,,OVC,0.00,WeatherDisplay:10.37,2013-06-09 00:21:00,
2013-06-08 19:26:00,67.8,56.9,29.88,East,90,6.0,6.0,68,0.00,,OVC,0.00,WeatherDisplay:10.37,2013-06-09 00:26:00,
2013-06-08 19:31:00,67.6,57.1,29.88,East,90,4.7,4.7,69,0.00,,OVC,0.00,WeatherDisplay:10.37,2013-06-09 00:31:00,
2013-06-08 19:36:00,67.3,57.2,29.88,ESE,112,4.9,5.8,70,0.00,,OVC,0.00,WeatherDisplay:10.37,2013-06-09 00:36:00,
2013-06-08 19:41:00,67.1,57.4,29.88,East,90,6.2,8.1,71,0.00,,OVC,0.00,WeatherDisplay:10.37,2013-06-09 00:41:00,
2013-06-08 19:47:00,66.9,57.2,29.88,East,90,4.0,5.8,71,0.00,,OVC,0.00,WeatherDisplay:10.37,2013-06-09 00:47:00,
2013-06-08 19:52:00,66.7,57.4,29.88,East,90,6.0,6.0,72,0.00,,OVC,0.00,WeatherDisplay:10.37,2013-06-09 00:52:00,
2013-06-08 19:57:00,66.6,57.6,29.88,East,90,6.2,6.2,73,0.00,,OVC,0.00,WeatherDisplay:10.37,2013-06-09 00:57:00,
2013-06-08 20:02:00,66.2,57.7,29.88,East,90,4.3,4.6,74,0.00,,OVC,0.00,WeatherDisplay:10.37,2013-06-09 01:02:00,
2013-06-08 20:07:00,66.0,57.5,29.88,ENE,68,4.5,4.6,74,0.00,,OVC,0.00,WeatherDisplay:10.37,2013-06-09 01:07:00,
2013-06-08 20:12:00,65.8,57.7,29.88,ESE,112,3.1,4.6,75,0.00,,OVC,0.00,WeatherDisplay:10.37,2013-06-09 01:12:00,
2013-06-08 20:17:00,65.5,57.3,29.88,East,90,5.2,5.2,75,0.00,,OVC,0.00,WeatherDisplay:10.37,2013-06-09 01:17:00,
2013-06-08 20:22:00,65.3,57.2,29.88,East,90,4.0,4.6,75,0.00,,OVC,0.00,WeatherDisplay:10.37,2013-06-09 01:22:00,
2013-06-08 20:27:00,65.3,57.2,29.88,ESE,112,5.4,5.8,75,0.00,,OVC,0.00,WeatherDisplay:10.37,2013-06-09 01:27:00,
2013-06-08 20:32:00,65.1,57.0,29.87,ESE,112,5.4,5.8,75,0.00,,OVC,0.00,WeatherDisplay:10.37,2013-06-09 01:32:00,
2013-06-08 20:37:00,64.9,56.8,29.87,ESE,112,5.9,5.9,75,0.00,,OVC,0.00,WeatherDisplay:10.37,2013-06-09 01:37:00,
2013-06-08 20:42:00,64.9,56.8,29.87,East,90,6.9,6.9,75,0.00,,OVC,0.00,WeatherDisplay:10.37,2013-06-09 01:42:00,
2013-06-08 20:47:00,64.8,56.6,29.87,ESE,112,4.0,5.8,75,0.00,,OVC,0.00,WeatherDisplay:10.37,2013-06-09 01:47:00,
2013-06-08 20:52:00,64.6,56.5,29.87,ESE,112,4.7,6.9,75,0.00,,OVC,0.00,WeatherDisplay:10.37,2013-06-09 01:52:00,
2013-06-08 20:57:00,64.6,56.5,29.87,ESE,112,3.3,4.6,75,0.00,,OVC,0.00,WeatherDisplay:10.37,2013-06-09 01:57:00,
2013-06-08 21:02:00,64.4,56.7,29.87,East,90,2.4,4.6,76,0.00,,OVC,0.00,WeatherDisplay:10.37,2013-06-09 02:02:00,
2013-06-08 21:07:00,64.4,56.3,29.88,ESE,112,4.5,5.8,75,0.00,,OVC,0.00,WeatherDisplay:10.37,2013-06-09 02:07:00,
2013-06-08 21:12:00,64.4,56.7,29.88,East,90,4.3,4.6,76,0.00,,OVC,0.00,WeatherDisplay:10.37,2013-06-09 02:12:00,
2013-06-08 21:17:00,64.4,56.3,29.87,ESE,112,4.9,8.1,75,0.00,,OVC,0.00,WeatherDisplay:10.37,2013-06-09 02:17:00,
2013-06-08 21:22:00,64.4,56.3,29.87,ESE,112,8.3,8.3,75,0.00,,OVC,0.00,WeatherDisplay:10.37,2013-06-09 02:22:00,
2013-06-08 21:27:00,64.4,56.3,29.88,East,90,6.2,6.2,75,0.00,,OVC,0.00,WeatherDisplay:10.37,2013-06-09 02:27:00,
2013-06-08 21:32:00,64.4,56.3,29.88,ESE,112,6.9,6.9,75,0.00,,OVC,0.00,WeatherDisplay:10.37,2013-06-09 02:32:00,
2013-06-08 21:37:00,64.4,56.3,29.88,ESE,112,6.7,6.9,75,0.00,,OVC,0.00,WeatherDisplay:10.37,2013-06-09 02:37:00,
2013-06-08 21:42:00,64.4,56.3,29.88,East,90,6.0,6.9,75,0.00,,OVC,0.00,WeatherDisplay:10.37,2013-06-09 02:42:00,
2013-06-08 21:47:00,64.4,55.9,29.88,East,90,4.5,4.6,74,0.00,,OVC,0.00,WeatherDisplay:10.37,2013-06-09 02:47:00,
2013-06-08 21:52:00,64.2,55.8,29.89,East,90,5.2,5.2,74,0.00,,OVC,0.00,WeatherDisplay:10.37,2013-06-09 02:52:00,
2013-06-08 21:57:00,64.2,55.8,29.89,ENE,68,4.3,4.6,74,0.00,,OVC,0.00,WeatherDisplay:10.37,2013-06-09 02:57:00,
2013-06-08 22:02:00,64.0,56.0,29.89,East,90,4.3,4.6,75,0.00,,OVC,0.00,WeatherDisplay:10.37,2013-06-09 03:02:00,
2013-06-08 22:07:00,63.9,55.8,29.90,East,90,3.3,6.9,75,0.00,,OVC,0.00,WeatherDisplay:10.37,2013-06-09 03:07:00,
2013-06-08 22:12:00,63.9,55.8,29.90,ESE,112,5.6,5.6,75,0.00,,OVC,0.00,WeatherDisplay:10.37,2013-06-09 03:12:00,
2013-06-08 22:17:00,63.7,55.6,29.90,East,90,6.2,6.9,75,0.00,,OVC,0.00,WeatherDisplay:10.37,2013-06-09 03:17:00,
2013-06-08 22:22:00,63.7,55.2,29.90,ESE,112,6.7,6.7,74,0.00,,OVC,0.00,WeatherDisplay:10.37,2013-06-09 03:22:00,
2013-06-08 22:27:00,63.9,55.4,29.89,East,90,6.7,6.9,74,0.00,,OVC,0.00,WeatherDisplay:10.37,2013-06-09 03:27:00,
2013-06-08 22:32:00,63.7,55.2,29.89,East,90,7.4,7.4,74,0.00,,OVC,0.00,WeatherDisplay:10.37,2013-06-09 03:32:00,
2013-06-08 22:37:00,63.5,55.4,29.89,East,90,8.7,9.2,75,0.00,,OVC,0.00,WeatherDisplay:10.37,2013-06-09 03:37:00,
2013-06-08 22:42:00,63.1,55.4,29.89,East,90,7.6,8.1,76,0.00,,OVC,0.00,WeatherDisplay:10.37,2013-06-09 03:42:00,
2013-06-08 22:47:00,62.8,55.1,29.88,ESE,112,7.1,7.1,76,0.00,,OVC,0.00,WeatherDisplay:10.37,2013-06-09 03:47:00,
2013-06-08 22:52:00,62.4,54.8,29.88,East,90,5.4,5.8,76,0.00,,OVC,0.00,WeatherDisplay:10.37,2013-06-09 03:52:00,
2013-06-08 22:57:00,62.2,54.6,29.88,ENE,68,7.6,8.1,76,0.00,,OVC,0.00,WeatherDisplay:10.37,2013-06-09 03:57:00,
2013-06-08 23:01:00,62.1,54.4,29.88,ESE,112,8.5,8.5,76,0.00,,OVC,0.00,WeatherDisplay:10.37,2013-06-09 04:01:00,
2013-06-08 23:02:00,62.1,54.4,29.88,ESE,112,7.8,8.1,76,0.00,,OVC,0.00,WeatherDisplay:10.37,2013-06-09 04:02:00,
2013-06-08 23:07:00,62.1,54.4,29.88,East,90,7.6,10.4,76,0.00,,OVC,0.00,WeatherDisplay:10.37,2013-06-09 04:07:00,
2013-06-08 23:12:00,62.1,54.4,29.87,East,90,6.9,8.1,76,0.00,,OVC,0.00,WeatherDisplay:10.37,2013-06-09 04:12:00,
2013-06-08 23:17:00,62.1,54.4,29.87,ESE,112,8.5,8.5,76,0.00,,OVC,0.00,WeatherDisplay:10.37,2013-06-09 04:17:00,
2013-06-08 23:22:00,61.9,54.2,29.87,East,90,5.6,8.1,76,0.00,,OVC,0.00,WeatherDisplay:10.37,2013-06-09 04:22:00,
2013-06-08 23:27:00,62.1,54.4,29.86,East,90,8.7,8.7,76,0.00,,OVC,0.00,WeatherDisplay:10.37,2013-06-09 04:27:00,
2013-06-08 23:32:00,62.1,54.4,29.86,East,90,4.7,5.8,76,0.00,,OVC,0.00,WeatherDisplay:10.37,2013-06-09 04:32:00,
2013-06-08 23:37:00,62.1,54.4,29.86,East,90,6.9,8.1,76,0.00,,OVC,0.00,WeatherDisplay:10.37,2013-06-09 04:37:00,
2013-06-08 23:42:00,61.9,54.2,29.86,East,90,6.4,9.2,76,0.00,,OVC,0.00,WeatherDisplay:10.37,2013-06-09 04:42:00,
2013-06-08 23:47:00,62.1,54.4,29.87,East,90,6.0,6.9,76,0.00,,OVC,0.00,WeatherDisplay:10.37,2013-06-09 04:47:00,
2013-06-08 23:52:00,62.1,54.4,29.87,East,90,7.1,9.2,76,0.00,,OVC,0.00,WeatherDisplay:10.37,2013-06-09 04:52:00,
2013-06-08 23:57:00,61.9,54.2,29.87,SSE,158,6.4,6.9,76,0.00,,OVC,0.00,WeatherDisplay:10.37,2013-06-09 04:57:00,